sensor_id;sensor_type;location;lat;lon;timestamp;pressure;altitude;pressure_sealevel;temperature;humidity
40918;BME280;26644;50.248;19.032;2023-07-20T00:00:21;97391.03;;;20.13;59.93
40918;BME280;26644;50.248;19.032;2023-07-20T00:03:25;97390.31;;;20.16;58.89
40918;BME280;26644;50.248;19.032;2023-07-20T00:06:33;97393.38;;;20.31;58.21
40918;BME280;26644;50.248;19.032;2023-07-20T00:09:41;97397.88;;;20.39;57.96
40918;BME280;26644;50.248;19.032;2023-07-20T00:12:46;97404.41;;;20.47;57.76
40918;BME280;26644;50.248;19.032;2023-07-20T00:15:51;97417.28;;;20.55;57.20
40918;BME280;26644;50.248;19.032;2023-07-20T00:18:56;97436.47;;;20.56;56.42
40918;BME280;26644;50.248;19.032;2023-07-20T00:22:03;97465.59;;;20.59;55.93
40918;BME280;26644;50.248;19.032;2023-07-20T00:25:09;97471.22;;;20.63;55.18
40918;BME280;26644;50.248;19.032;2023-07-20T00:28:13;97469.09;;;20.56;54.09
40918;BME280;26644;50.248;19.032;2023-07-20T00:31:18;97474.75;;;20.59;54.39
40918;BME280;26644;50.248;19.032;2023-07-20T00:34:23;97479.53;;;20.59;54.92
40918;BME280;26644;50.248;19.032;2023-07-20T00:37:32;97499.09;;;20.63;55.81
40918;BME280;26644;50.248;19.032;2023-07-20T00:40:36;97496.09;;;20.52;56.06
40918;BME280;26644;50.248;19.032;2023-07-20T00:43:41;97505.72;;;20.54;56.51
40918;BME280;26644;50.248;19.032;2023-07-20T00:46:46;97500.88;;;20.51;56.97
40918;BME280;26644;50.248;19.032;2023-07-20T00:49:52;97497.22;;;20.47;57.81
40918;BME280;26644;50.248;19.032;2023-07-20T00:53:03;97498.19;;;20.35;58.47
40918;BME280;26644;50.248;19.032;2023-07-20T00:56:09;97508.38;;;20.28;59.17
40918;BME280;26644;50.248;19.032;2023-07-20T00:59:14;97508.16;;;20.17;60.10
40918;BME280;26644;50.248;19.032;2023-07-20T01:02:19;97507.44;;;20.04;61.04
40918;BME280;26644;50.248;19.032;2023-07-20T01:05:35;97500.41;;;19.90;61.72
40918;BME280;26644;50.248;19.032;2023-07-20T01:09:01;97480.97;;;19.74;62.70
40918;BME280;26644;50.248;19.032;2023-07-20T01:12:24;97476.75;;;19.65;63.20
40918;BME280;26644;50.248;19.032;2023-07-20T01:15:33;97468.59;;;19.56;64.12
40918;BME280;26644;50.248;19.032;2023-07-20T01:18:38;97441.41;;;19.49;64.59
40918;BME280;26644;50.248;19.032;2023-07-20T01:25:26;97435.84;;;19.49;65.33
40918;BME280;26644;50.248;19.032;2023-07-20T01:29:11;97434.31;;;19.52;65.27
40918;BME280;26644;50.248;19.032;2023-07-20T01:32:29;97425.50;;;19.50;64.77
40918;BME280;26644;50.248;19.032;2023-07-20T01:35:38;97432.69;;;19.51;65.10
40918;BME280;26644;50.248;19.032;2023-07-20T01:38:47;97432.59;;;19.47;65.18
40918;BME280;26644;50.248;19.032;2023-07-20T01:41:53;97446.63;;;19.51;65.15
40918;BME280;26644;50.248;19.032;2023-07-20T01:44:57;97443.31;;;19.45;64.80
40918;BME280;26644;50.248;19.032;2023-07-20T01:48:05;97434.41;;;19.39;65.57
40918;BME280;26644;50.248;19.032;2023-07-20T01:51:11;97432.47;;;19.40;65.66
40918;BME280;26644;50.248;19.032;2023-07-20T01:54:15;97442.50;;;19.45;64.94
40918;BME280;26644;50.248;19.032;2023-07-20T01:57:21;97453.56;;;19.41;64.82
40918;BME280;26644;50.248;19.032;2023-07-20T02:00:25;97459.19;;;19.45;64.25
40918;BME280;26644;50.248;19.032;2023-07-20T02:06:37;97481.09;;;19.46;63.70
40918;BME280;26644;50.248;19.032;2023-07-20T02:09:42;97472.69;;;19.42;63.39
40918;BME280;26644;50.248;19.032;2023-07-20T02:12:46;97470.25;;;19.41;62.76
40918;BME280;26644;50.248;19.032;2023-07-20T02:15:51;97469.16;;;19.46;62.50
40918;BME280;26644;50.248;19.032;2023-07-20T02:18:58;97455.53;;;19.40;61.99
40918;BME280;26644;50.248;19.032;2023-07-20T02:22:04;97481.81;;;19.43;62.13
40918;BME280;26644;50.248;19.032;2023-07-20T02:25:09;97480.56;;;19.40;62.29
40918;BME280;26644;50.248;19.032;2023-07-20T02:28:14;97494.84;;;19.39;61.66
40918;BME280;26644;50.248;19.032;2023-07-20T02:31:18;97504.34;;;19.38;61.70
40918;BME280;26644;50.248;19.032;2023-07-20T02:34:26;97511.44;;;19.35;61.18
40918;BME280;26644;50.248;19.032;2023-07-20T02:37:30;97489.72;;;19.25;62.02
40918;BME280;26644;50.248;19.032;2023-07-20T02:40:35;97493.06;;;19.31;63.97
40918;BME280;26644;50.248;19.032;2023-07-20T02:43:39;97496.63;;;19.15;64.01
40918;BME280;26644;50.248;19.032;2023-07-20T02:46:44;97498.34;;;19.04;65.86
40918;BME280;26644;50.248;19.032;2023-07-20T02:49:53;97486.59;;;18.95;65.35
40918;BME280;26644;50.248;19.032;2023-07-20T02:52:58;97490.69;;;18.85;65.58
40918;BME280;26644;50.248;19.032;2023-07-20T02:56:03;97500.81;;;18.77;65.95
40918;BME280;26644;50.248;19.032;2023-07-20T02:59:08;97494.19;;;18.66;65.60
40918;BME280;26644;50.248;19.032;2023-07-20T03:02:12;97508.50;;;18.68;66.07
40918;BME280;26644;50.248;19.032;2023-07-20T03:05:20;97514.31;;;18.63;65.46
40918;BME280;26644;50.248;19.032;2023-07-20T03:08:26;97508.59;;;18.55;65.41
40918;BME280;26644;50.248;19.032;2023-07-20T03:11:32;97513.50;;;18.46;65.95
40918;BME280;26644;50.248;19.032;2023-07-20T03:14:37;97520.56;;;18.43;66.22
40918;BME280;26644;50.248;19.032;2023-07-20T03:17:42;97521.72;;;18.42;65.65
40918;BME280;26644;50.248;19.032;2023-07-20T03:20:49;97527.16;;;18.39;65.83
40918;BME280;26644;50.248;19.032;2023-07-20T03:23:54;97530.63;;;18.36;65.91
40918;BME280;26644;50.248;19.032;2023-07-20T03:26:58;97525.69;;;18.29;65.85
40918;BME280;26644;50.248;19.032;2023-07-20T03:30:05;97541.31;;;18.34;65.99
40918;BME280;26644;50.248;19.032;2023-07-20T03:33:10;97545.13;;;18.29;66.10
40918;BME280;26644;50.248;19.032;2023-07-20T03:36:18;97548.81;;;18.33;66.48
40918;BME280;26644;50.248;19.032;2023-07-20T03:39:22;97564.69;;;18.33;66.44
40918;BME280;26644;50.248;19.032;2023-07-20T03:42:27;97563.63;;;18.37;66.21
40918;BME280;26644;50.248;19.032;2023-07-20T03:45:31;97571.16;;;18.37;65.85
40918;BME280;26644;50.248;19.032;2023-07-20T03:48:36;97576.59;;;18.33;66.49
40918;BME280;26644;50.248;19.032;2023-07-20T03:51:43;97564.34;;;18.34;66.64
40918;BME280;26644;50.248;19.032;2023-07-20T03:54:48;97560.84;;;18.37;66.32
40918;BME280;26644;50.248;19.032;2023-07-20T03:57:52;97565.50;;;18.46;65.75
40918;BME280;26644;50.248;19.032;2023-07-20T04:00:57;97566.53;;;18.41;65.54
40918;BME280;26644;50.248;19.032;2023-07-20T04:04:04;97571.75;;;18.42;65.59
40918;BME280;26644;50.248;19.032;2023-07-20T04:07:13;97563.97;;;18.48;65.76
40918;BME280;26644;50.248;19.032;2023-07-20T04:10:17;97577.59;;;18.53;65.39
40918;BME280;26644;50.248;19.032;2023-07-20T04:13:22;97585.63;;;18.55;65.30
40918;BME280;26644;50.248;19.032;2023-07-20T04:16:26;97590.81;;;18.56;65.46
40918;BME280;26644;50.248;19.032;2023-07-20T04:19:31;97605.16;;;18.58;65.56
40918;BME280;26644;50.248;19.032;2023-07-20T04:22:38;97567.44;;;18.57;65.48
40918;BME280;26644;50.248;19.032;2023-07-20T04:25:47;97561.75;;;18.54;65.68
40918;BME280;26644;50.248;19.032;2023-07-20T04:28:51;97558.66;;;18.43;65.41
40918;BME280;26644;50.248;19.032;2023-07-20T04:32:10;97573.47;;;18.47;65.72
40918;BME280;26644;50.248;19.032;2023-07-20T04:35:17;97582.38;;;18.53;66.50
40918;BME280;26644;50.248;19.032;2023-07-20T04:38:47;97570.88;;;18.54;66.35
40918;BME280;26644;50.248;19.032;2023-07-20T04:41:55;97564.66;;;18.57;65.71
40918;BME280;26644;50.248;19.032;2023-07-20T04:45:01;97573.97;;;18.65;65.29
40918;BME280;26644;50.248;19.032;2023-07-20T04:48:11;97570.28;;;18.61;65.18
40918;BME280;26644;50.248;19.032;2023-07-20T04:51:23;97577.81;;;18.60;65.27
40918;BME280;26644;50.248;19.032;2023-07-20T04:54:32;97575.41;;;18.59;65.50
40918;BME280;26644;50.248;19.032;2023-07-20T04:57:37;97596.38;;;18.56;65.70
40918;BME280;26644;50.248;19.032;2023-07-20T05:00:41;97600.41;;;18.59;65.67
40918;BME280;26644;50.248;19.032;2023-07-20T05:03:47;97613.84;;;18.57;66.08
40918;BME280;26644;50.248;19.032;2023-07-20T05:06:51;97596.63;;;18.51;66.29
40918;BME280;26644;50.248;19.032;2023-07-20T05:09:59;97599.66;;;18.46;66.92
40918;BME280;26644;50.248;19.032;2023-07-20T05:13:04;97608.34;;;18.45;67.20
40918;BME280;26644;50.248;19.032;2023-07-20T05:16:09;97582.66;;;18.23;67.91
40918;BME280;26644;50.248;19.032;2023-07-20T05:19:13;97606.72;;;18.43;68.28
40918;BME280;26644;50.248;19.032;2023-07-20T05:22:18;97608.34;;;18.45;67.71
40918;BME280;26644;50.248;19.032;2023-07-20T05:25:25;97624.59;;;18.58;68.01
40918;BME280;26644;50.248;19.032;2023-07-20T05:28:30;97616.38;;;18.62;69.04
40918;BME280;26644;50.248;19.032;2023-07-20T05:31:34;97631.97;;;18.79;68.45
40918;BME280;26644;50.248;19.032;2023-07-20T05:34:39;97636.56;;;18.87;67.58
40918;BME280;26644;50.248;19.032;2023-07-20T05:37:44;97634.25;;;18.89;67.23
40918;BME280;26644;50.248;19.032;2023-07-20T05:40:51;97639.44;;;18.91;67.45
40918;BME280;26644;50.248;19.032;2023-07-20T05:43:55;97639.88;;;18.93;67.71
40918;BME280;26644;50.248;19.032;2023-07-20T05:47:00;97642.34;;;18.95;68.00
40918;BME280;26644;50.248;19.032;2023-07-20T05:50:06;97630.03;;;18.96;68.14
40918;BME280;26644;50.248;19.032;2023-07-20T05:53:12;97635.25;;;18.97;68.57
40918;BME280;26644;50.248;19.032;2023-07-20T05:56:18;97631.03;;;19.03;68.21
40918;BME280;26644;50.248;19.032;2023-07-20T05:59:24;97634.28;;;19.05;66.85
40918;BME280;26644;50.248;19.032;2023-07-20T06:02:30;97634.47;;;19.13;66.04
40918;BME280;26644;50.248;19.032;2023-07-20T06:05:35;97622.34;;;19.21;65.81
40918;BME280;26644;50.248;19.032;2023-07-20T06:08:39;97561.09;;;19.33;64.34
40918;BME280;26644;50.248;19.032;2023-07-20T06:11:46;97651.50;;;20.74;61.80
40918;BME280;26644;50.248;19.032;2023-07-20T06:14:51;97651.97;;;21.58;58.60
40918;BME280;26644;50.248;19.032;2023-07-20T06:17:56;97648.00;;;22.33;56.71
40918;BME280;26644;50.248;19.032;2023-07-20T06:21:01;97651.16;;;23.22;54.02
40918;BME280;26644;50.248;19.032;2023-07-20T06:24:07;97659.91;;;24.00;52.04
40918;BME280;26644;50.248;19.032;2023-07-20T06:27:14;97654.47;;;24.81;49.80
40918;BME280;26644;50.248;19.032;2023-07-20T06:30:19;97658.72;;;25.52;47.57
40918;BME280;26644;50.248;19.032;2023-07-20T06:33:23;97657.97;;;25.98;45.88
40918;BME280;26644;50.248;19.032;2023-07-20T06:36:28;97645.94;;;26.27;45.98
40918;BME280;26644;50.248;19.032;2023-07-20T06:39:32;97659.53;;;26.64;45.05
40918;BME280;26644;50.248;19.032;2023-07-20T06:42:40;97667.06;;;26.96;43.31
40918;BME280;26644;50.248;19.032;2023-07-20T06:45:44;97677.56;;;26.85;42.38
40918;BME280;26644;50.248;19.032;2023-07-20T06:48:49;97669.16;;;26.60;42.57
40918;BME280;26644;50.248;19.032;2023-07-20T06:51:54;97663.19;;;26.14;43.82
40918;BME280;26644;50.248;19.032;2023-07-20T06:54:59;97659.56;;;25.63;44.53
40918;BME280;26644;50.248;19.032;2023-07-20T06:58:05;97668.38;;;25.54;45.25
40918;BME280;26644;50.248;19.032;2023-07-20T07:01:10;97665.09;;;25.34;45.49
40918;BME280;26644;50.248;19.032;2023-07-20T07:04:15;97658.56;;;25.08;44.90
40918;BME280;26644;50.248;19.032;2023-07-20T07:07:20;97657.31;;;24.92;45.27
40918;BME280;26644;50.248;19.032;2023-07-20T07:10:25;97658.28;;;25.39;44.92
40918;BME280;26644;50.248;19.032;2023-07-20T07:13:32;97659.97;;;25.87;43.30
40918;BME280;26644;50.248;19.032;2023-07-20T07:16:36;97666.41;;;25.98;42.59
40918;BME280;26644;50.248;19.032;2023-07-20T07:19:41;97668.78;;;25.89;43.17
40918;BME280;26644;50.248;19.032;2023-07-20T07:22:46;97676.44;;;25.96;42.68
40918;BME280;26644;50.248;19.032;2023-07-20T07:25:52;97682.84;;;25.74;42.72
40918;BME280;26644;50.248;19.032;2023-07-20T07:28:58;97678.50;;;25.99;42.05
40918;BME280;26644;50.248;19.032;2023-07-20T07:32:04;97677.66;;;25.80;42.74
40918;BME280;26644;50.248;19.032;2023-07-20T07:35:11;97676.03;;;25.86;42.80
40918;BME280;26644;50.248;19.032;2023-07-20T07:38:16;97682.09;;;26.21;42.54
40918;BME280;26644;50.248;19.032;2023-07-20T07:41:20;97674.44;;;26.47;41.96
40918;BME280;26644;50.248;19.032;2023-07-20T07:44:27;97692.13;;;26.65;41.16
40918;BME280;26644;50.248;19.032;2023-07-20T07:47:32;97695.28;;;26.82;40.73
40918;BME280;26644;50.248;19.032;2023-07-20T07:50:38;97690.28;;;27.29;40.27
40918;BME280;26644;50.248;19.032;2023-07-20T07:53:42;97688.09;;;27.62;38.57
40918;BME280;26644;50.248;19.032;2023-07-20T07:56:48;97698.28;;;28.05;38.19
40918;BME280;26644;50.248;19.032;2023-07-20T07:59:54;97699.66;;;27.79;38.54
40918;BME280;26644;50.248;19.032;2023-07-20T08:02:59;97697.50;;;27.37;38.80
40918;BME280;26644;50.248;19.032;2023-07-20T08:06:04;97701.72;;;26.71;39.23
40918;BME280;26644;50.248;19.032;2023-07-20T08:09:08;97684.06;;;25.92;40.76
40918;BME280;26644;50.248;19.032;2023-07-20T08:12:13;97694.84;;;25.53;41.84
40918;BME280;26644;50.248;19.032;2023-07-20T08:15:22;97698.31;;;25.14;42.28
40918;BME280;26644;50.248;19.032;2023-07-20T08:18:26;97710.47;;;25.33;43.17
40918;BME280;26644;50.248;19.032;2023-07-20T08:21:31;97701.75;;;25.88;42.05
40918;BME280;26644;50.248;19.032;2023-07-20T08:24:39;97700.16;;;26.67;41.51
40918;BME280;26644;50.248;19.032;2023-07-20T08:27:44;97700.75;;;27.18;40.29
40918;BME280;26644;50.248;19.032;2023-07-20T08:30:51;97708.78;;;27.34;39.59
40918;BME280;26644;50.248;19.032;2023-07-20T08:33:56;97704.88;;;26.92;40.12
40918;BME280;26644;50.248;19.032;2023-07-20T08:37:01;97694.53;;;26.34;40.98
40918;BME280;26644;50.248;19.032;2023-07-20T08:40:07;97686.91;;;26.10;41.64
40918;BME280;26644;50.248;19.032;2023-07-20T08:43:13;97711.41;;;26.34;42.49
40918;BME280;26644;50.248;19.032;2023-07-20T08:46:24;97719.34;;;27.04;41.44
40918;BME280;26644;50.248;19.032;2023-07-20T08:49:31;97720.44;;;27.39;39.97
40918;BME280;26644;50.248;19.032;2023-07-20T08:52:37;97713.56;;;27.44;39.75
40918;BME280;26644;50.248;19.032;2023-07-20T08:55:43;97713.81;;;27.71;39.35
40918;BME280;26644;50.248;19.032;2023-07-20T08:58:50;97721.06;;;28.32;38.29
40918;BME280;26644;50.248;19.032;2023-07-20T09:02:00;97705.78;;;29.10;37.52
40918;BME280;26644;50.248;19.032;2023-07-20T09:05:08;97721.22;;;29.67;36.03
40918;BME280;26644;50.248;19.032;2023-07-20T09:08:14;97735.56;;;30.07;34.77
40918;BME280;26644;50.248;19.032;2023-07-20T09:11:19;97728.97;;;30.41;34.74
40918;BME280;26644;50.248;19.032;2023-07-20T09:14:23;97730.88;;;30.48;34.19
40918;BME280;26644;50.248;19.032;2023-07-20T09:17:31;97743.69;;;30.32;34.68
40918;BME280;26644;50.248;19.032;2023-07-20T09:20:36;97742.63;;;29.95;34.87
40918;BME280;26644;50.248;19.032;2023-07-20T09:23:41;97719.75;;;29.24;35.93
40918;BME280;26644;50.248;19.032;2023-07-20T09:26:47;97731.38;;;29.30;36.85
40918;BME280;26644;50.248;19.032;2023-07-20T09:29:53;97733.09;;;29.54;36.43
40918;BME280;26644;50.248;19.032;2023-07-20T09:33:00;97726.88;;;29.67;36.15
40918;BME280;26644;50.248;19.032;2023-07-20T09:36:05;97720.75;;;29.99;36.02
40918;BME280;26644;50.248;19.032;2023-07-20T09:39:09;97728.59;;;30.39;34.77
40918;BME280;26644;50.248;19.032;2023-07-20T09:42:14;97732.09;;;30.70;34.74
40918;BME280;26644;50.248;19.032;2023-07-20T09:45:20;97728.78;;;30.76;33.75
40918;BME280;26644;50.248;19.032;2023-07-20T09:48:29;97734.25;;;30.15;34.81
40918;BME280;26644;50.248;19.032;2023-07-20T09:51:33;97731.63;;;29.43;35.52
40918;BME280;26644;50.248;19.032;2023-07-20T09:54:39;97731.72;;;28.59;37.19
40918;BME280;26644;50.248;19.032;2023-07-20T09:57:45;97734.56;;;28.03;38.44
40918;BME280;26644;50.248;19.032;2023-07-20T10:00:51;97723.25;;;28.07;38.75
40918;BME280;26644;50.248;19.032;2023-07-20T10:04:03;97721.00;;;28.36;38.95
40918;BME280;26644;50.248;19.032;2023-07-20T10:07:13;97717.03;;;28.75;37.85
40918;BME280;26644;50.248;19.032;2023-07-20T10:10:22;97725.00;;;29.22;37.33
40918;BME280;26644;50.248;19.032;2023-07-20T10:13:29;97718.13;;;29.54;36.22
40918;BME280;26644;50.248;19.032;2023-07-20T10:16:39;97718.66;;;30.03;35.53
40918;BME280;26644;50.248;19.032;2023-07-20T10:19:56;97729.59;;;30.01;34.87
40918;BME280;26644;50.248;19.032;2023-07-20T10:23:04;97727.56;;;29.75;35.28
40918;BME280;26644;50.248;19.032;2023-07-20T10:26:11;97710.03;;;29.56;35.43
40918;BME280;26644;50.248;19.032;2023-07-20T10:29:18;97723.72;;;29.88;35.84
40918;BME280;26644;50.248;19.032;2023-07-20T10:32:23;97720.63;;;29.79;34.67
40918;BME280;26644;50.248;19.032;2023-07-20T10:35:51;97733.28;;;29.71;34.86
40918;BME280;26644;50.248;19.032;2023-07-20T10:38:57;97728.31;;;29.79;34.52
40918;BME280;26644;50.248;19.032;2023-07-20T10:42:05;97731.94;;;30.07;34.13
40918;BME280;26644;50.248;19.032;2023-07-20T10:45:11;97720.06;;;30.43;34.07
40918;BME280;26644;50.248;19.032;2023-07-20T10:48:19;97711.63;;;30.39;33.32
40918;BME280;26644;50.248;19.032;2023-07-20T10:51:29;97720.28;;;30.28;33.16
40918;BME280;26644;50.248;19.032;2023-07-20T10:54:48;97707.88;;;29.95;33.44
40918;BME280;26644;50.248;19.032;2023-07-20T10:58:06;97707.88;;;29.95;33.61
40918;BME280;26644;50.248;19.032;2023-07-20T11:01:15;97708.88;;;30.08;33.40
40918;BME280;26644;50.248;19.032;2023-07-20T11:04:38;97702.34;;;30.11;33.09
40918;BME280;26644;50.248;19.032;2023-07-20T11:07:45;97705.34;;;30.00;32.84
40918;BME280;26644;50.248;19.032;2023-07-20T11:11:22;97704.72;;;29.58;32.72
40918;BME280;26644;50.248;19.032;2023-07-20T11:14:27;97692.19;;;28.97;34.13
40918;BME280;26644;50.248;19.032;2023-07-20T11:17:39;97687.13;;;28.36;34.42
40918;BME280;26644;50.248;19.032;2023-07-20T11:20:43;97679.50;;;27.87;35.25
40918;BME280;26644;50.248;19.032;2023-07-20T11:23:52;97689.75;;;27.52;35.23
40918;BME280;26644;50.248;19.032;2023-07-20T11:26:56;97689.91;;;27.20;34.89
40918;BME280;26644;50.248;19.032;2023-07-20T11:30:02;97688.81;;;26.96;36.31
40918;BME280;26644;50.248;19.032;2023-07-20T11:33:08;97677.19;;;26.83;35.09
40918;BME280;26644;50.248;19.032;2023-07-20T11:36:14;97677.63;;;26.56;35.51
40918;BME280;26644;50.248;19.032;2023-07-20T11:39:22;97677.66;;;26.38;35.97
40918;BME280;26644;50.248;19.032;2023-07-20T11:42:28;97675.66;;;26.28;36.89
40918;BME280;26644;50.248;19.032;2023-07-20T11:45:32;97680.88;;;26.11;36.59
40918;BME280;26644;50.248;19.032;2023-07-20T11:48:37;97671.63;;;25.93;36.41
40918;BME280;26644;50.248;19.032;2023-07-20T11:51:42;97663.19;;;25.71;36.74
40918;BME280;26644;50.248;19.032;2023-07-20T11:54:50;97671.63;;;25.71;37.46
40918;BME280;26644;50.248;19.032;2023-07-20T11:58:04;97658.75;;;25.59;37.68
40918;BME280;26644;50.248;19.032;2023-07-20T12:01:11;97663.56;;;25.66;37.93
40918;BME280;26644;50.248;19.032;2023-07-20T12:04:16;97660.34;;;25.67;38.23
40918;BME280;26644;50.248;19.032;2023-07-20T12:07:21;97656.75;;;25.63;38.96
40918;BME280;26644;50.248;19.032;2023-07-20T12:10:29;97649.50;;;25.51;38.85
40918;BME280;26644;50.248;19.032;2023-07-20T12:13:38;97640.63;;;25.35;38.59
40918;BME280;26644;50.248;19.032;2023-07-20T12:16:53;97654.69;;;25.38;37.82
40918;BME280;26644;50.248;19.032;2023-07-20T12:19:58;97649.88;;;25.35;37.64
40918;BME280;26644;50.248;19.032;2023-07-20T12:23:05;97645.38;;;25.20;38.19
40918;BME280;26644;50.248;19.032;2023-07-20T12:26:16;97617.19;;;24.91;38.72
40918;BME280;26644;50.248;19.032;2023-07-20T12:29:21;97641.31;;;25.06;39.25
40918;BME280;26644;50.248;19.032;2023-07-20T12:32:26;97642.13;;;25.07;39.44
40918;BME280;26644;50.248;19.032;2023-07-20T12:35:30;97652.19;;;25.15;39.71
40918;BME280;26644;50.248;19.032;2023-07-20T12:38:36;97649.78;;;25.17;38.85
40918;BME280;26644;50.248;19.032;2023-07-20T12:41:45;97641.34;;;25.10;38.88
40918;BME280;26644;50.248;19.032;2023-07-20T12:44:50;97635.31;;;25.12;39.41
40918;BME280;26644;50.248;19.032;2023-07-20T12:47:54;97638.91;;;25.05;39.01
40918;BME280;26644;50.248;19.032;2023-07-20T12:50:59;97642.50;;;25.02;38.51
40918;BME280;26644;50.248;19.032;2023-07-20T12:54:04;97643.31;;;25.02;38.67
40918;BME280;26644;50.248;19.032;2023-07-20T12:57:11;97649.75;;;24.99;38.85
40918;BME280;26644;50.248;19.032;2023-07-20T13:00:16;97637.69;;;24.99;38.51
40918;BME280;26644;50.248;19.032;2023-07-20T13:03:22;97623.56;;;24.73;37.72
40918;BME280;26644;50.248;19.032;2023-07-20T13:06:26;97632.38;;;24.79;38.03
40918;BME280;26644;50.248;19.032;2023-07-20T13:09:31;97631.97;;;24.73;37.90
40918;BME280;26644;50.248;19.032;2023-07-20T13:12:38;97641.19;;;24.74;37.98
40918;BME280;26644;50.248;19.032;2023-07-20T13:15:44;97636.00;;;24.76;37.79
40918;BME280;26644;50.248;19.032;2023-07-20T13:18:49;97639.63;;;24.84;37.73
40918;BME280;26644;50.248;19.032;2023-07-20T13:21:54;97633.66;;;24.89;37.39
40918;BME280;26644;50.248;19.032;2023-07-20T13:24:59;97632.44;;;24.94;37.53
40918;BME280;26644;50.248;19.032;2023-07-20T13:28:07;97637.28;;;24.97;38.13
40918;BME280;26644;50.248;19.032;2023-07-20T13:31:11;97628.88;;;24.97;38.57
40918;BME280;26644;50.248;19.032;2023-07-20T13:34:18;97629.66;;;24.97;37.34
40918;BME280;26644;50.248;19.032;2023-07-20T13:37:22;97627.66;;;24.94;37.74
40918;BME280;26644;50.248;19.032;2023-07-20T13:40:27;97630.44;;;24.98;38.00
40918;BME280;26644;50.248;19.032;2023-07-20T13:43:34;97628.47;;;24.98;38.13
40918;BME280;26644;50.248;19.032;2023-07-20T13:46:39;97624.84;;;25.01;38.26
40918;BME280;26644;50.248;19.032;2023-07-20T13:49:44;97610.41;;;24.96;37.66
40918;BME280;26644;50.248;19.032;2023-07-20T13:52:49;97612.81;;;24.90;37.75
40918;BME280;26644;50.248;19.032;2023-07-20T13:55:53;97612.38;;;24.88;38.07
40918;BME280;26644;50.248;19.032;2023-07-20T13:59:01;97603.94;;;24.77;38.27
40918;BME280;26644;50.248;19.032;2023-07-20T14:02:05;97613.13;;;24.70;38.91
40918;BME280;26644;50.248;19.032;2023-07-20T14:05:10;97630.41;;;24.87;39.36
40918;BME280;26644;50.248;19.032;2023-07-20T14:08:16;97647.31;;;24.98;38.96
40918;BME280;26644;50.248;19.032;2023-07-20T14:11:21;97664.97;;;25.02;39.00
40918;BME280;26644;50.248;19.032;2023-07-20T14:14:28;97661.69;;;24.85;39.29
40918;BME280;26644;50.248;19.032;2023-07-20T14:17:33;97671.28;;;24.77;39.44
40918;BME280;26644;50.248;19.032;2023-07-20T14:20:37;97668.47;;;24.77;39.60
40918;BME280;26644;50.248;19.032;2023-07-20T14:23:44;97650.06;;;24.80;39.31
40918;BME280;26644;50.248;19.032;2023-07-20T14:26:49;97636.00;;;24.76;38.90
40918;BME280;26644;50.248;19.032;2023-07-20T14:29:56;97646.44;;;24.83;39.36
40918;BME280;26644;50.248;19.032;2023-07-20T14:33:01;97631.59;;;24.86;38.86
40918;BME280;26644;50.248;19.032;2023-07-20T14:36:06;97635.25;;;24.90;38.74
40918;BME280;26644;50.248;19.032;2023-07-20T14:39:10;97660.88;;;24.81;38.28
40918;BME280;26644;50.248;19.032;2023-07-20T14:42:15;97669.69;;;24.80;38.96
40918;BME280;26644;50.248;19.032;2023-07-20T14:45:22;97664.47;;;24.74;38.71
40918;BME280;26644;50.248;19.032;2023-07-20T14:48:27;97680.94;;;24.80;38.79
40918;BME280;26644;50.248;19.032;2023-07-20T14:51:31;97682.53;;;24.81;38.56
40918;BME280;26644;50.248;19.032;2023-07-20T14:54:37;97694.94;;;24.76;41.13
40918;BME280;26644;50.248;19.032;2023-07-20T14:57:42;97699.47;;;24.39;44.00
40918;BME280;26644;50.248;19.032;2023-07-20T15:00:49;97694.78;;;23.99;45.83
40918;BME280;26644;50.248;19.032;2023-07-20T15:03:54;97684.19;;;23.44;47.31
40918;BME280;26644;50.248;19.032;2023-07-20T15:06:59;97680.63;;;23.13;49.04
40918;BME280;26644;50.248;19.032;2023-07-20T15:10:05;97675.44;;;22.81;50.39
40918;BME280;26644;50.248;19.032;2023-07-20T15:13:11;97669.94;;;22.57;50.88
40918;BME280;26644;50.248;19.032;2023-07-20T15:16:18;97680.47;;;22.41;51.48
40918;BME280;26644;50.248;19.032;2023-07-20T15:19:23;97677.66;;;22.14;52.52
40918;BME280;26644;50.248;19.032;2023-07-20T15:22:27;97668.66;;;22.01;53.19
40918;BME280;26644;50.248;19.032;2023-07-20T15:25:36;97670.59;;;21.97;53.32
40918;BME280;26644;50.248;19.032;2023-07-20T15:28:40;97674.81;;;21.87;54.09
40918;BME280;26644;50.248;19.032;2023-07-20T15:31:48;97680.22;;;21.77;54.34
40918;BME280;26644;50.248;19.032;2023-07-20T15:34:52;97665.25;;;21.65;53.79
40918;BME280;26644;50.248;19.032;2023-07-20T15:37:57;97676.53;;;21.72;53.85
40918;BME280;26644;50.248;19.032;2023-07-20T15:41:02;97676.50;;;21.92;54.36
40918;BME280;26644;50.248;19.032;2023-07-20T15:44:07;97670.47;;;21.90;53.82
40918;BME280;26644;50.248;19.032;2023-07-20T15:47:13;97681.47;;;22.02;53.61
40918;BME280;26644;50.248;19.032;2023-07-20T15:50:19;97689.47;;;22.04;53.13
40918;BME280;26644;50.248;19.032;2023-07-20T15:53:23;97683.50;;;22.05;52.44
40918;BME280;26644;50.248;19.032;2023-07-20T15:56:28;97691.09;;;22.05;51.90
40918;BME280;26644;50.248;19.032;2023-07-20T15:59:32;97676.69;;;22.03;51.97
40918;BME280;26644;50.248;19.032;2023-07-20T16:02:39;97688.34;;;22.08;51.82
40918;BME280;26644;50.248;19.032;2023-07-20T16:05:44;97692.69;;;22.06;51.72
40918;BME280;26644;50.248;19.032;2023-07-20T16:08:49;97676.22;;;22.01;51.92
40918;BME280;26644;50.248;19.032;2023-07-20T16:11:54;97686.25;;;22.02;52.04
40918;BME280;26644;50.248;19.032;2023-07-20T16:15:00;97689.84;;;22.02;52.94
40918;BME280;26644;50.248;19.032;2023-07-20T16:18:07;97687.06;;;22.02;52.99
40918;BME280;26644;50.248;19.032;2023-07-20T16:21:12;97689.91;;;22.06;53.07